createdAt,value
2023-05-05T00:02:12.835Z,100129.16
2023-05-05T00:05:01.414Z,100137.31
2023-05-05T00:07:50.255Z,100129.44
2023-05-05T00:10:38.775Z,100132.81
2023-05-05T00:13:27.284Z,100124.38
2023-05-05T00:16:17.501Z,100137.41
2023-05-05T00:19:06.620Z,100129.75
2023-05-05T00:21:55.142Z,100124.22
2023-05-05T00:24:43.676Z,100129.22
2023-05-05T00:27:32.424Z,100129.31
2023-05-05T00:30:21.132Z,100129.81
2023-05-05T00:33:11.287Z,100127.75
2023-05-05T00:35:59.803Z,100122.13
2023-05-05T00:38:48.321Z,100127.34
2023-05-05T00:41:36.849Z,100115.78
2023-05-05T00:44:37.221Z,100121.84
2023-05-05T00:47:25.768Z,100110.97
2023-05-05T00:50:23.622Z,100108.56
2023-05-05T00:53:13.148Z,100104.91
2023-05-05T00:56:01.715Z,100099.22
2023-05-05T00:58:53.397Z,100090.91
2023-05-05T01:01:41.958Z,100106.56
2023-05-05T01:04:30.518Z,100109.09
2023-05-05T01:07:27.797Z,100103.63
2023-05-05T01:10:22.070Z,100107.75
2023-05-05T01:13:21.210Z,100108.41
2023-05-05T01:16:26.383Z,100108.13
2023-05-05T01:19:27.672Z,100106.63
2023-05-05T01:22:16.825Z,100106.41
2023-05-05T01:25:17.840Z,100100.88
2023-05-05T01:28:12.407Z,100114.41
2023-05-05T01:31:10.783Z,100121.06
2023-05-05T01:34:02.605Z,100121.69
2023-05-05T01:36:56.888Z,100119.38
2023-05-05T01:39:47.857Z,100126.47
2023-05-05T01:42:37.538Z,100114.72
2023-05-05T01:45:27.820Z,100129.75
2023-05-05T01:48:18.310Z,100126.84
2023-05-05T01:51:09.011Z,100127.50
2023-05-05T01:53:59.148Z,100139.72
2023-05-05T01:56:47.979Z,100138.00
2023-05-05T01:59:37.444Z,100141.00
2023-05-05T02:02:27.491Z,100137.69
2023-05-05T02:05:17.091Z,100135.22
2023-05-05T02:08:07.844Z,100129.91
2023-05-05T02:10:56.865Z,100135.16
2023-05-05T02:13:45.884Z,100144.31
2023-05-05T02:16:34.842Z,100150.59
2023-05-05T02:19:28.105Z,100147.91
2023-05-05T02:22:16.863Z,100144.38
2023-05-05T02:25:07.852Z,100148.03
2023-05-05T02:27:58.078Z,100150.28
2023-05-05T02:30:50.725Z,100153.41
2023-05-05T02:33:39.857Z,100159.88
2023-05-05T02:36:30.165Z,100163.47
2023-05-05T02:39:23.450Z,100156.13
2023-05-05T02:42:17.418Z,100136.66
2023-05-05T02:45:11.596Z,100077.47
2023-05-05T02:48:03.246Z,100153.13
2023-05-05T02:50:51.724Z,100166.69
2023-05-05T02:53:40.568Z,100159.09
2023-05-05T02:56:35.599Z,100164.44
2023-05-05T02:59:32.694Z,100169.66
2023-05-05T03:02:25.525Z,100167.84
2023-05-05T03:05:18.220Z,100154.16
2023-05-05T03:08:12.095Z,100164.25
2023-05-05T03:11:05.834Z,100160.97
2023-05-05T03:14:02.685Z,100163.88
2023-05-05T03:16:53.739Z,100163.28
2023-05-05T03:19:43.759Z,100150.69
2023-05-05T03:22:32.445Z,100153.84
2023-05-05T03:25:21.151Z,100154.06
2023-05-05T03:28:09.608Z,100144.38
2023-05-05T03:30:58.161Z,100146.50
2023-05-05T03:33:48.267Z,100152.03
2023-05-05T03:36:37.098Z,100139.66
2023-05-05T03:39:25.823Z,100151.06
2023-05-05T03:42:14.351Z,100159.13
2023-05-05T03:45:02.855Z,100165.34
2023-05-05T03:47:51.381Z,100175.91
2023-05-05T03:50:41.206Z,100133.63
2023-05-05T03:53:29.652Z,100166.38
2023-05-05T03:56:18.095Z,100169.06
2023-05-05T03:59:06.899Z,100167.03
2023-05-05T04:01:55.403Z,100162.47
2023-05-05T04:04:43.945Z,100174.25
2023-05-05T04:07:33.885Z,100169.84
2023-05-05T04:10:22.506Z,100173.56
2023-05-05T04:13:11.346Z,100172.25
2023-05-05T04:16:00.157Z,100173.22
2023-05-05T04:18:48.710Z,100179.19
2023-05-05T04:21:37.167Z,100176.22
2023-05-05T04:24:27.427Z,100180.34
2023-05-05T04:27:15.880Z,100179.38
2023-05-05T04:30:05.016Z,100087.69
2023-05-05T04:32:53.772Z,100178.13
2023-05-05T04:35:42.366Z,100186.13
2023-05-05T04:38:30.895Z,100144.69
2023-05-05T04:41:21.356Z,100192.06
2023-05-05T04:44:09.920Z,100185.31
2023-05-05T04:46:58.655Z,100195.88
2023-05-05T04:49:47.218Z,100191.72
2023-05-05T04:52:35.795Z,100203.47
2023-05-05T04:55:24.240Z,100200.47
2023-05-05T04:58:14.024Z,100194.84
2023-05-05T05:01:03.268Z,100199.78
2023-05-05T05:03:52.039Z,100203.72
2023-05-05T05:06:40.524Z,100202.59
2023-05-05T05:09:28.977Z,100205.22
2023-05-05T05:12:17.451Z,100199.16
2023-05-05T05:15:08.858Z,100205.13
2023-05-05T05:17:57.910Z,100210.22
2023-05-05T05:20:46.422Z,100218.59
2023-05-05T05:23:35.039Z,100211.38
2023-05-05T05:26:23.527Z,100221.91
2023-05-05T05:29:11.944Z,100223.47
2023-05-05T05:32:01.859Z,100224.31
2023-05-05T05:34:50.352Z,100201.13
2023-05-05T05:37:39.057Z,100233.41
2023-05-05T05:40:27.511Z,100237.06
2023-05-05T05:43:15.965Z,100239.22
2023-05-05T05:46:05.872Z,100245.38
2023-05-05T05:48:57.397Z,100229.72
2023-05-05T05:51:45.898Z,100238.44
2023-05-05T05:54:35.592Z,100228.47
2023-05-05T05:57:24.639Z,100241.75
2023-05-05T06:00:15.785Z,100248.69
2023-05-05T06:03:04.457Z,100249.25
2023-05-05T06:05:54.316Z,100252.31
2023-05-05T06:08:42.769Z,100259.03
2023-05-05T06:11:31.296Z,100256.19
2023-05-05T06:14:20.202Z,100240.44
2023-05-05T06:17:08.768Z,100264.56
2023-05-05T06:19:57.280Z,100258.88
2023-05-05T06:22:47.059Z,100252.59
2023-05-05T06:25:35.546Z,100254.47
2023-05-05T06:28:23.968Z,100180.72
2023-05-05T06:31:12.859Z,100154.69
2023-05-05T06:34:01.385Z,100252.88
2023-05-05T06:36:49.939Z,100262.78
2023-05-05T06:39:39.761Z,100269.06
2023-05-05T06:42:28.425Z,100273.91
2023-05-05T06:45:16.978Z,100270.25
2023-05-05T06:48:05.940Z,100266.44
2023-05-05T06:50:54.994Z,100266.13
2023-05-05T06:53:43.478Z,100267.91
2023-05-05T06:56:33.309Z,100270.59
2023-05-05T06:59:22.020Z,100276.63
2023-05-05T07:02:10.520Z,100281.41
2023-05-05T07:04:59.042Z,100281.06
2023-05-05T07:07:54.251Z,100283.56
2023-05-05T07:10:42.781Z,100282.97
2023-05-05T07:13:32.723Z,100270.53
2023-05-05T07:16:21.244Z,100274.41
2023-05-05T07:19:09.744Z,100277.78
2023-05-05T07:21:58.247Z,100277.50
2023-05-05T07:24:46.736Z,100273.69
2023-05-05T07:27:35.635Z,100284.16
2023-05-05T07:30:26.033Z,100283.47
2023-05-05T07:33:15.809Z,100291.13
2023-05-05T07:36:04.746Z,100261.69
2023-05-05T07:38:53.437Z,100291.69
2023-05-05T07:41:42.249Z,100290.34
2023-05-05T07:44:30.727Z,100289.53
2023-05-05T07:47:20.930Z,100276.44
2023-05-05T07:50:10.129Z,100284.31
2023-05-05T07:53:10.860Z,100265.47
2023-05-05T07:56:02.680Z,100281.03
2023-05-05T07:58:51.142Z,100288.75
2023-05-05T08:01:39.790Z,100249.47
2023-05-05T08:04:29.793Z,100280.13
2023-05-05T08:07:18.366Z,100273.47
2023-05-05T08:10:08.112Z,100277.91
2023-05-05T08:12:56.721Z,100286.38
2023-05-05T08:15:45.704Z,100287.19
2023-05-05T08:18:37.450Z,100283.03
2023-05-05T08:21:27.732Z,100280.19
2023-05-05T08:24:16.218Z,100280.16
2023-05-05T08:27:04.973Z,100279.59
2023-05-05T08:29:53.451Z,100278.53
2023-05-05T08:32:42.230Z,100277.25
2023-05-05T08:35:30.766Z,100274.53
2023-05-05T08:38:20.682Z,100270.72
2023-05-05T08:41:09.865Z,100263.06
2023-05-05T08:43:58.397Z,100259.28
2023-05-05T08:46:47.187Z,100275.13
2023-05-05T08:49:41.734Z,100278.16
2023-05-05T08:52:34.811Z,100279.00
2023-05-05T08:55:26.629Z,100284.19
2023-05-05T08:58:16.448Z,100276.81
2023-05-05T09:01:06.231Z,100221.41
2023-05-05T09:03:54.727Z,100266.75
2023-05-05T09:06:43.552Z,100276.81
2023-05-05T09:09:32.052Z,100281.22
2023-05-05T09:12:23.064Z,100284.47
2023-05-05T09:15:13.090Z,100282.00
2023-05-05T09:18:03.617Z,100229.84
2023-05-05T09:20:52.203Z,100280.63
2023-05-05T09:23:40.726Z,100209.06
2023-05-05T09:26:31.989Z,100265.84
2023-05-05T09:29:22.364Z,100274.03
2023-05-05T09:32:10.826Z,100268.56
2023-05-05T09:35:00.276Z,100256.31
2023-05-05T09:37:49.037Z,100254.13
2023-05-05T09:40:46.519Z,100264.25
2023-05-05T09:43:51.725Z,100177.72
2023-05-05T09:46:51.214Z,100241.84
2023-05-05T09:49:40.181Z,100218.94
2023-05-05T09:52:28.749Z,100261.81
2023-05-05T09:55:18.634Z,100260.19
2023-05-05T09:58:19.884Z,100269.19
2023-05-05T10:01:23.134Z,100263.19
2023-05-05T10:04:25.896Z,100260.72
2023-05-05T10:07:24.029Z,100266.44
2023-05-05T10:10:14.103Z,100263.13
2023-05-05T10:13:03.152Z,100265.88
2023-05-05T10:15:53.037Z,100271.06
2023-05-05T10:18:44.964Z,100265.31
2023-05-05T10:21:41.451Z,100263.09
2023-05-05T10:24:35.894Z,100261.16
2023-05-05T10:27:25.815Z,100256.72
2023-05-05T10:30:18.947Z,100264.50
2023-05-05T10:33:30.328Z,100252.41
2023-05-05T10:36:21.511Z,100250.66
2023-05-05T10:39:11.983Z,100235.75
2023-05-05T10:42:02.859Z,100248.09
2023-05-05T10:44:51.401Z,100252.94
2023-05-05T10:47:40.807Z,100250.75
2023-05-05T10:50:31.774Z,100254.56
2023-05-05T10:53:24.046Z,100253.50
2023-05-05T10:56:17.355Z,100248.59
2023-05-05T10:59:42.747Z,100240.16
2023-05-05T11:02:31.781Z,100241.31
2023-05-05T11:05:22.279Z,100237.81
2023-05-05T11:08:26.385Z,100227.91
2023-05-05T11:11:16.325Z,100229.13
2023-05-05T11:14:22.462Z,100217.59
2023-05-05T11:17:45.445Z,100203.09
2023-05-05T11:21:09.097Z,100206.31
2023-05-05T11:24:28.203Z,100197.25
2023-05-05T11:27:18.045Z,100196.16
2023-05-05T11:30:09.057Z,100178.81
2023-05-05T11:33:25.819Z,100195.16
2023-05-05T11:36:15.233Z,100188.09
2023-05-05T11:39:09.807Z,100158.81
2023-05-05T11:42:23.353Z,100179.44
2023-05-05T11:45:22.543Z,100181.19
2023-05-05T11:48:26.513Z,100171.75
2023-05-05T11:51:15.302Z,100176.81
2023-05-05T11:54:03.913Z,100179.84
2023-05-05T11:56:52.618Z,100168.34
2023-05-05T11:59:54.403Z,100169.19
2023-05-05T12:02:42.935Z,100152.47
2023-05-05T12:05:32.745Z,100171.66
2023-05-05T12:08:22.177Z,100168.72
2023-05-05T12:11:12.033Z,100159.81
2023-05-05T12:14:10.616Z,100158.72
2023-05-05T12:17:08.465Z,100141.28
2023-05-05T12:19:56.954Z,100162.09
2023-05-05T12:22:45.488Z,100151.13
2023-05-05T12:25:39.019Z,100151.72
2023-05-05T12:28:44.368Z,100144.47
2023-05-05T12:31:36.900Z,100147.44
2023-05-05T12:34:27.349Z,100144.31
2023-05-05T12:37:18.964Z,100135.34
2023-05-05T12:40:09.106Z,100136.56
2023-05-05T12:42:57.772Z,100127.41
2023-05-05T12:45:46.374Z,100124.25
2023-05-05T12:48:36.449Z,100118.56
2023-05-05T12:51:27.092Z,100107.25
2023-05-05T12:54:15.575Z,100110.00
2023-05-05T12:57:12.374Z,100100.84
2023-05-05T13:00:13.682Z,100095.22
2023-05-05T13:03:02.560Z,100099.47
2023-05-05T13:05:51.161Z,100088.19
2023-05-05T13:08:46.945Z,100097.31
2023-05-05T13:11:39.198Z,100097.47
2023-05-05T13:14:27.735Z,100080.72
2023-05-05T13:17:16.296Z,100086.81
2023-05-05T13:20:05.460Z,100082.31
2023-05-05T13:22:53.937Z,100073.81
2023-05-05T13:25:43.800Z,100077.41
2023-05-05T13:28:32.349Z,100072.91
2023-05-05T13:31:21.119Z,100074.09
2023-05-05T13:34:09.744Z,100053.03
2023-05-05T13:36:58.317Z,100025.25
2023-05-05T13:39:46.816Z,100049.13
2023-05-05T13:42:36.774Z,100046.19
2023-05-05T13:45:25.387Z,100041.19
2023-05-05T13:48:13.986Z,100037.50
2023-05-05T13:51:02.438Z,100035.66
2023-05-05T13:53:51.497Z,100027.41
2023-05-05T13:56:39.985Z,100026.00
2023-05-05T13:59:30.000Z,100019.78
2023-05-05T14:02:18.426Z,100013.78
2023-05-05T14:05:07.958Z,100012.97
2023-05-05T14:07:56.646Z,100013.75
2023-05-05T14:10:47.255Z,100008.91
2023-05-05T14:13:36.300Z,99998.06
2023-05-05T14:16:26.160Z,99987.78
2023-05-05T14:19:14.715Z,99987.25
2023-05-05T14:22:03.173Z,99991.91
2023-05-05T14:24:51.695Z,99998.31
2023-05-05T14:27:40.240Z,99999.22
2023-05-05T14:30:28.861Z,99996.34
2023-05-05T14:33:18.736Z,99998.38
2023-05-05T14:36:08.064Z,99992.22
2023-05-05T14:38:56.604Z,99995.91
2023-05-05T14:41:45.160Z,99998.09
2023-05-05T14:44:33.653Z,100000.38
2023-05-05T14:47:22.239Z,99993.50
2023-05-05T14:50:14.110Z,99986.97
2023-05-05T14:53:02.748Z,100010.81
2023-05-05T14:55:51.276Z,100000.53
2023-05-05T14:58:39.710Z,99997.13
2023-05-05T15:01:28.381Z,100000.31
2023-05-05T15:04:16.877Z,99999.34
2023-05-05T15:07:06.765Z,99997.78
2023-05-05T15:09:55.399Z,99988.38
2023-05-05T15:12:43.952Z,99989.56
2023-05-05T15:15:32.801Z,99984.31
2023-05-05T15:18:21.258Z,99995.53
2023-05-05T15:21:09.738Z,99999.63
2023-05-05T15:23:59.661Z,100002.81
2023-05-05T15:26:48.166Z,100018.13
2023-05-05T15:29:36.848Z,100018.56
2023-05-05T15:32:25.561Z,100011.41
2023-05-05T15:35:14.109Z,100024.72
2023-05-05T15:38:02.676Z,100004.25
2023-05-05T15:40:52.665Z,100043.97
2023-05-05T15:43:41.399Z,100048.69
2023-05-05T15:46:32.752Z,100032.66
2023-05-05T15:49:21.266Z,100113.31
2023-05-05T15:52:09.849Z,100111.81
2023-05-05T15:54:58.294Z,100090.78
2023-05-05T15:57:48.348Z,100136.38
2023-05-05T16:00:37.079Z,100096.31
2023-05-05T16:03:25.892Z,100144.66
2023-05-05T16:06:14.464Z,100153.78
2023-05-05T16:09:03.779Z,100145.69
2023-05-05T16:11:54.059Z,100154.03
2023-05-05T16:14:43.901Z,100147.91
2023-05-05T16:17:32.421Z,100148.09
2023-05-05T16:20:21.138Z,100147.78
2023-05-05T16:23:09.609Z,100132.25
2023-05-05T16:25:58.206Z,100127.06
2023-05-05T16:28:46.725Z,100115.13
2023-05-05T16:31:36.669Z,100128.56
2023-05-05T16:34:25.237Z,100139.06
2023-05-05T16:37:13.797Z,100136.81
2023-05-05T16:40:05.395Z,100137.19
2023-05-05T16:42:53.984Z,100126.69
2023-05-05T16:45:43.387Z,100135.28
2023-05-05T16:48:33.340Z,100129.75
2023-05-05T16:51:21.864Z,100097.31
2023-05-05T16:54:10.349Z,100113.59
2023-05-05T16:56:58.815Z,100121.44
2023-05-05T16:59:47.291Z,100144.28
2023-05-05T17:02:36.227Z,100131.25
2023-05-05T17:05:26.925Z,100102.59
2023-05-05T17:08:15.485Z,100094.56
2023-05-05T17:11:03.959Z,100089.66
2023-05-05T17:13:52.406Z,100083.97
2023-05-05T17:16:41.032Z,100091.72
2023-05-05T17:19:29.714Z,100096.31
2023-05-05T17:22:19.661Z,100087.69
2023-05-05T17:25:09.669Z,100102.88
2023-05-05T17:27:58.685Z,100092.78
2023-05-05T17:30:47.285Z,100111.03
2023-05-05T17:33:35.803Z,100110.13
2023-05-05T17:36:24.386Z,100118.84
2023-05-05T17:39:14.307Z,100122.88
2023-05-05T17:42:02.868Z,100128.63
2023-05-05T17:44:51.407Z,100131.59
2023-05-05T17:47:40.041Z,100099.44
2023-05-05T17:50:28.628Z,100131.25
2023-05-05T17:53:17.096Z,100138.84
2023-05-05T17:56:08.989Z,100136.38
2023-05-05T17:58:57.904Z,100139.09
2023-05-05T18:01:46.477Z,100145.03
2023-05-05T18:04:36.750Z,100147.97
2023-05-05T18:07:25.355Z,100144.13
2023-05-05T18:10:13.905Z,100148.13
2023-05-05T18:13:03.889Z,100150.09
2023-05-05T18:15:52.440Z,100160.91
2023-05-05T18:18:41.610Z,100149.41
2023-05-05T18:21:30.160Z,100144.88
2023-05-05T18:24:20.320Z,100160.16
2023-05-05T18:27:09.209Z,100158.53
2023-05-05T18:29:59.178Z,100157.69
2023-05-05T18:32:48.776Z,100154.91
2023-05-05T18:35:37.330Z,100162.28
2023-05-05T18:38:25.894Z,100164.75
2023-05-05T18:41:15.231Z,100160.66
2023-05-05T18:44:03.905Z,100175.28
2023-05-05T18:46:53.830Z,100161.75
2023-05-05T18:49:42.378Z,100157.94
2023-05-05T18:52:30.896Z,100151.13
2023-05-05T18:55:19.527Z,100161.84
2023-05-05T18:58:08.064Z,100168.03
2023-05-05T19:00:57.516Z,100159.81
2023-05-05T19:03:49.060Z,100174.19
2023-05-05T19:06:39.387Z,100155.22
2023-05-05T19:09:28.111Z,100186.44
2023-05-05T19:12:16.607Z,100190.69
2023-05-05T19:15:05.733Z,100186.84
2023-05-05T19:17:54.287Z,100196.28
2023-05-05T19:20:44.261Z,100197.09
2023-05-05T19:23:33.360Z,100199.25
2023-05-05T19:26:22.070Z,100193.97
2023-05-05T19:29:10.656Z,100195.38
2023-05-05T19:31:59.204Z,100195.88
2023-05-05T19:34:47.932Z,100195.88
2023-05-05T19:37:37.848Z,100176.44
2023-05-05T19:40:26.380Z,100188.38
2023-05-05T19:43:15.055Z,100178.19
2023-05-05T19:46:03.602Z,100176.03
2023-05-05T19:48:54.658Z,100202.56
2023-05-05T19:51:43.777Z,100206.84
2023-05-05T19:54:33.723Z,100201.91
2023-05-05T19:57:22.260Z,100199.34
2023-05-05T20:00:12.039Z,100204.75
2023-05-05T20:03:01.001Z,100202.47
2023-05-05T20:05:49.572Z,100193.00
2023-05-05T20:08:38.773Z,100213.78
2023-05-05T20:11:29.279Z,100222.38
2023-05-05T20:14:18.002Z,100225.34
2023-05-05T20:17:06.510Z,100217.69
2023-05-05T20:19:55.081Z,100216.38
2023-05-05T20:22:43.563Z,100218.19
2023-05-05T20:25:32.088Z,100193.19
2023-05-05T20:28:22.112Z,100214.13
2023-05-05T20:31:10.864Z,100214.25
2023-05-05T20:33:59.411Z,100218.75
2023-05-05T20:36:47.990Z,100229.81
2023-05-05T20:39:36.556Z,100233.91
2023-05-05T20:42:25.625Z,100231.44
2023-05-05T20:45:16.280Z,100237.34
2023-05-05T20:48:05.568Z,100212.78
2023-05-05T20:50:54.162Z,100239.25
2023-05-05T20:53:42.707Z,100215.22
2023-05-05T20:56:31.256Z,100234.50
2023-05-05T20:59:19.870Z,100239.34
2023-05-05T21:02:09.774Z,100245.22
2023-05-05T21:05:02.862Z,100235.09
2023-05-05T21:07:51.613Z,100232.88
2023-05-05T21:10:40.759Z,100195.38
2023-05-05T21:13:29.285Z,100233.81
2023-05-05T21:16:17.769Z,100230.78
2023-05-05T21:19:07.683Z,100225.84
2023-05-05T21:21:58.964Z,100211.63
2023-05-05T21:24:47.508Z,100225.72
2023-05-05T21:27:35.943Z,100221.03
2023-05-05T21:30:24.959Z,100217.50
2023-05-05T21:33:13.425Z,100221.41
2023-05-05T21:36:03.344Z,100234.09
2023-05-05T21:38:55.277Z,100220.00
2023-05-05T21:41:43.804Z,100217.28
2023-05-05T21:44:32.312Z,100218.69
2023-05-05T21:47:20.815Z,100210.13
2023-05-05T21:50:11.130Z,100221.72
2023-05-05T21:53:01.200Z,100215.06
2023-05-05T21:55:49.669Z,100212.22
2023-05-05T21:58:38.201Z,100214.94
2023-05-05T22:01:26.858Z,100204.47
2023-05-05T22:04:15.459Z,100218.34
2023-05-05T22:07:04.155Z,100220.91
2023-05-05T22:09:54.023Z,100214.09
2023-05-05T22:12:42.503Z,100217.66
2023-05-05T22:15:38.940Z,100221.41
2023-05-05T22:18:34.259Z,100214.81
2023-05-05T22:21:22.903Z,100224.81
2023-05-05T22:24:11.524Z,100227.75
2023-05-05T22:27:01.744Z,100233.63
2023-05-05T22:29:50.289Z,100239.38
2023-05-05T22:32:38.879Z,100237.59
2023-05-05T22:35:27.464Z,100235.38
2023-05-05T22:38:16.026Z,100225.63
2023-05-05T22:41:04.640Z,100235.72
2023-05-05T22:43:54.502Z,100224.66
2023-05-05T22:46:43.098Z,100221.13
2023-05-05T22:49:31.689Z,100221.03
2023-05-05T22:52:20.229Z,100229.63
2023-05-05T22:55:09.521Z,100229.00
2023-05-05T22:57:58.238Z,100233.25
2023-05-05T23:00:48.077Z,100232.06
2023-05-05T23:03:36.805Z,100225.66
2023-05-05T23:06:25.420Z,100181.06
2023-05-05T23:09:13.884Z,100237.31
2023-05-05T23:12:02.855Z,100239.41
2023-05-05T23:14:51.468Z,100242.09
2023-05-05T23:17:41.421Z,100238.59
2023-05-05T23:20:30.021Z,100230.72
2023-05-05T23:23:18.548Z,100229.94
2023-05-05T23:26:07.115Z,100238.03
2023-05-05T23:28:55.582Z,100234.78
2023-05-05T23:31:44.035Z,100226.25
2023-05-05T23:34:33.936Z,100226.72
2023-05-05T23:37:22.929Z,100240.06
2023-05-05T23:40:11.797Z,100244.38
2023-05-05T23:43:00.945Z,100221.56
2023-05-05T23:45:49.551Z,100234.03
2023-05-05T23:48:38.009Z,100236.28
2023-05-05T23:51:28.284Z,100241.28
2023-05-05T23:54:16.821Z,100233.84
2023-05-05T23:57:05.434Z,100240.66
2023-05-05T23:59:53.899Z,100239.72
